sensor_id;sensor_type;location;lat;lon;timestamp;P1;durP1;ratioP1;P2;durP2;ratioP2
33162;SDS011;29282;45.656;11.302;2024-03-22T00:01:43;11.40;;;8.35;;
33162;SDS011;29282;45.656;11.302;2024-03-22T00:04:12;13.57;;;8.73;;
33162;SDS011;29282;45.656;11.302;2024-03-22T00:06:41;9.57;;;7.63;;
33162;SDS011;29282;45.656;11.302;2024-03-22T00:09:07;9.80;;;8.05;;
33162;SDS011;29282;45.656;11.302;2024-03-22T00:11:33;10.77;;;8.02;;
33162;SDS011;29282;45.656;11.302;2024-03-22T00:13:59;10.38;;;7.72;;
33162;SDS011;29282;45.656;11.302;2024-03-22T00:16:25;12.60;;;7.80;;
33162;SDS011;29282;45.656;11.302;2024-03-22T00:18:50;12.15;;;8.55;;
33162;SDS011;29282;45.656;11.302;2024-03-22T00:21:16;12.27;;;7.88;;
33162;SDS011;29282;45.656;11.302;2024-03-22T00:23:45;12.80;;;8.20;;
33162;SDS011;29282;45.656;11.302;2024-03-22T00:26:13;11.73;;;8.02;;
33162;SDS011;29282;45.656;11.302;2024-03-22T00:28:39;10.57;;;7.40;;
33162;SDS011;29282;45.656;11.302;2024-03-22T00:31:05;11.18;;;7.93;;
33162;SDS011;29282;45.656;11.302;2024-03-22T00:33:30;11.57;;;7.93;;
33162;SDS011;29282;45.656;11.302;2024-03-22T00:35:56;10.20;;;7.40;;
33162;SDS011;29282;45.656;11.302;2024-03-22T00:38:22;9.15;;;7.22;;
33162;SDS011;29282;45.656;11.302;2024-03-22T00:40:48;9.70;;;7.60;;
33162;SDS011;29282;45.656;11.302;2024-03-22T00:43:14;8.02;;;7.10;;
33162;SDS011;29282;45.656;11.302;2024-03-22T00:45:39;11.57;;;8.20;;
33162;SDS011;29282;45.656;11.302;2024-03-22T00:48:06;10.57;;;7.88;;
33162;SDS011;29282;45.656;11.302;2024-03-22T00:50:32;12.77;;;7.60;;
33162;SDS011;29282;45.656;11.302;2024-03-22T00:52:58;10.05;;;7.88;;
33162;SDS011;29282;45.656;11.302;2024-03-22T00:55:24;10.57;;;7.93;;
33162;SDS011;29282;45.656;11.302;2024-03-22T00:57:50;11.40;;;7.63;;
33162;SDS011;29282;45.656;11.302;2024-03-22T01:00:17;10.35;;;7.05;;
33162;SDS011;29282;45.656;11.302;2024-03-22T01:02:43;10.48;;;7.75;;
33162;SDS011;29282;45.656;11.302;2024-03-22T01:05:09;11.57;;;7.93;;
33162;SDS011;29282;45.656;11.302;2024-03-22T01:07:35;12.65;;;7.53;;
33162;SDS011;29282;45.656;11.302;2024-03-22T01:10:02;10.65;;;7.45;;
33162;SDS011;29282;45.656;11.302;2024-03-22T01:12:32;9.20;;;7.45;;
33162;SDS011;29282;45.656;11.302;2024-03-22T01:14:57;10.25;;;7.40;;
33162;SDS011;29282;45.656;11.302;2024-03-22T01:17:23;7.05;;;6.35;;
33162;SDS011;29282;45.656;11.302;2024-03-22T01:19:49;10.68;;;7.63;;
33162;SDS011;29282;45.656;11.302;2024-03-22T01:22:16;8.13;;;6.93;;
33162;SDS011;29282;45.656;11.302;2024-03-22T01:24:43;9.75;;;7.03;;
33162;SDS011;29282;45.656;11.302;2024-03-22T01:27:09;8.98;;;7.10;;
33162;SDS011;29282;45.656;11.302;2024-03-22T01:29:35;8.77;;;6.65;;
33162;SDS011;29282;45.656;11.302;2024-03-22T01:32:01;9.80;;;7.47;;
33162;SDS011;29282;45.656;11.302;2024-03-22T01:34:27;9.40;;;6.93;;
33162;SDS011;29282;45.656;11.302;2024-03-22T01:36:53;8.80;;;6.95;;
33162;SDS011;29282;45.656;11.302;2024-03-22T01:39:23;10.60;;;7.40;;
33162;SDS011;29282;45.656;11.302;2024-03-22T01:41:49;10.38;;;7.15;;
33162;SDS011;29282;45.656;11.302;2024-03-22T01:44:15;8.57;;;6.95;;
33162;SDS011;29282;45.656;11.302;2024-03-22T01:46:41;8.38;;;6.65;;
33162;SDS011;29282;45.656;11.302;2024-03-22T01:49:10;8.82;;;6.90;;
33162;SDS011;29282;45.656;11.302;2024-03-22T01:51:40;7.40;;;6.63;;
33162;SDS011;29282;45.656;11.302;2024-03-22T01:54:06;8.85;;;6.72;;
33162;SDS011;29282;45.656;11.302;2024-03-22T01:56:37;10.82;;;6.97;;
33162;SDS011;29282;45.656;11.302;2024-03-22T01:59:07;7.28;;;6.28;;
33162;SDS011;29282;45.656;11.302;2024-03-22T02:01:33;8.98;;;6.70;;
33162;SDS011;29282;45.656;11.302;2024-03-22T02:03:59;9.27;;;7.18;;
33162;SDS011;29282;45.656;11.302;2024-03-22T02:06:25;10.75;;;7.30;;
33162;SDS011;29282;45.656;11.302;2024-03-22T02:08:51;8.77;;;6.80;;
33162;SDS011;29282;45.656;11.302;2024-03-22T02:11:17;8.13;;;6.43;;
33162;SDS011;29282;45.656;11.302;2024-03-22T02:13:44;8.60;;;6.20;;
33162;SDS011;29282;45.656;11.302;2024-03-22T02:16:10;7.60;;;6.60;;
33162;SDS011;29282;45.656;11.302;2024-03-22T02:18:35;8.05;;;6.65;;
33162;SDS011;29282;45.656;11.302;2024-03-22T02:21:04;8.85;;;6.75;;
33162;SDS011;29282;45.656;11.302;2024-03-22T02:23:33;8.32;;;6.38;;
33162;SDS011;29282;45.656;11.302;2024-03-22T02:26:02;7.68;;;6.35;;
33162;SDS011;29282;45.656;11.302;2024-03-22T02:28:30;7.43;;;6.55;;
33162;SDS011;29282;45.656;11.302;2024-03-22T02:30:57;7.88;;;6.60;;
33162;SDS011;29282;45.656;11.302;2024-03-22T02:33:26;8.95;;;6.28;;
33162;SDS011;29282;45.656;11.302;2024-03-22T02:35:51;7.32;;;5.88;;
33162;SDS011;29282;45.656;11.302;2024-03-22T02:38:20;6.55;;;5.82;;
33162;SDS011;29282;45.656;11.302;2024-03-22T02:40:50;7.63;;;5.85;;
33162;SDS011;29282;45.656;11.302;2024-03-22T02:43:20;7.07;;;5.63;;
33162;SDS011;29282;45.656;11.302;2024-03-22T02:45:46;9.63;;;6.25;;
33162;SDS011;29282;45.656;11.302;2024-03-22T02:48:12;7.15;;;6.18;;
33162;SDS011;29282;45.656;11.302;2024-03-22T02:50:40;7.72;;;5.90;;
33162;SDS011;29282;45.656;11.302;2024-03-22T02:53:06;7.72;;;5.45;;
33162;SDS011;29282;45.656;11.302;2024-03-22T02:55:36;7.15;;;5.50;;
33162;SDS011;29282;45.656;11.302;2024-03-22T02:58:08;6.55;;;5.60;;
33162;SDS011;29282;45.656;11.302;2024-03-22T03:00:37;6.57;;;5.80;;
33162;SDS011;29282;45.656;11.302;2024-03-22T03:03:04;6.25;;;5.65;;
33162;SDS011;29282;45.656;11.302;2024-03-22T03:05:31;7.38;;;5.82;;
33162;SDS011;29282;45.656;11.302;2024-03-22T03:07:56;7.50;;;5.57;;
33162;SDS011;29282;45.656;11.302;2024-03-22T03:10:22;6.68;;;5.90;;
33162;SDS011;29282;45.656;11.302;2024-03-22T03:12:48;6.68;;;5.50;;
33162;SDS011;29282;45.656;11.302;2024-03-22T03:15:14;8.35;;;6.20;;
33162;SDS011;29282;45.656;11.302;2024-03-22T03:17:39;8.10;;;5.90;;
33162;SDS011;29282;45.656;11.302;2024-03-22T03:20:05;6.22;;;5.63;;
33162;SDS011;29282;45.656;11.302;2024-03-22T03:22:35;6.28;;;5.60;;
33162;SDS011;29282;45.656;11.302;2024-03-22T03:25:05;6.38;;;5.53;;
33162;SDS011;29282;45.656;11.302;2024-03-22T03:27:31;6.85;;;6.00;;
33162;SDS011;29282;45.656;11.302;2024-03-22T03:29:57;8.02;;;5.72;;
33162;SDS011;29282;45.656;11.302;2024-03-22T03:32:23;5.93;;;5.25;;
33162;SDS011;29282;45.656;11.302;2024-03-22T03:34:50;7.32;;;5.88;;
33162;SDS011;29282;45.656;11.302;2024-03-22T03:37:16;6.20;;;5.35;;
33162;SDS011;29282;45.656;11.302;2024-03-22T03:42:26;6.72;;;5.40;;
33162;SDS011;29282;45.656;11.302;2024-03-22T03:44:51;5.60;;;5.10;;
33162;SDS011;29282;45.656;11.302;2024-03-22T03:47:17;6.80;;;5.60;;
33162;SDS011;29282;45.656;11.302;2024-03-22T03:49:44;6.00;;;5.25;;
33162;SDS011;29282;45.656;11.302;2024-03-22T03:52:11;5.80;;;5.20;;
33162;SDS011;29282;45.656;11.302;2024-03-22T03:54:36;5.82;;;5.22;;
33162;SDS011;29282;45.656;11.302;2024-03-22T03:57:02;5.47;;;4.55;;
33162;SDS011;29282;45.656;11.302;2024-03-22T03:59:27;6.65;;;5.10;;
33162;SDS011;29282;45.656;11.302;2024-03-22T04:01:53;6.45;;;5.53;;
33162;SDS011;29282;45.656;11.302;2024-03-22T04:04:19;6.53;;;5.40;;
33162;SDS011;29282;45.656;11.302;2024-03-22T04:06:44;5.82;;;5.10;;
33162;SDS011;29282;45.656;11.302;2024-03-22T04:09:10;6.63;;;4.95;;
33162;SDS011;29282;45.656;11.302;2024-03-22T04:11:38;6.65;;;5.50;;
33162;SDS011;29282;45.656;11.302;2024-03-22T04:14:04;5.57;;;4.63;;
33162;SDS011;29282;45.656;11.302;2024-03-22T04:16:30;6.07;;;5.38;;
33162;SDS011;29282;45.656;11.302;2024-03-22T04:18:56;5.28;;;4.78;;
33162;SDS011;29282;45.656;11.302;2024-03-22T04:21:22;6.18;;;4.72;;
33162;SDS011;29282;45.656;11.302;2024-03-22T04:23:47;6.13;;;5.18;;
33162;SDS011;29282;45.656;11.302;2024-03-22T04:26:13;6.82;;;5.15;;
33162;SDS011;29282;45.656;11.302;2024-03-22T04:28:38;5.90;;;5.00;;
33162;SDS011;29282;45.656;11.302;2024-03-22T04:31:05;5.43;;;4.93;;
33162;SDS011;29282;45.656;11.302;2024-03-22T04:33:33;6.63;;;4.53;;
33162;SDS011;29282;45.656;11.302;2024-03-22T04:35:59;6.68;;;5.32;;
33162;SDS011;29282;45.656;11.302;2024-03-22T04:38:26;5.25;;;4.60;;
33162;SDS011;29282;45.656;11.302;2024-03-22T04:40:52;7.30;;;4.57;;
33162;SDS011;29282;45.656;11.302;2024-03-22T04:43:18;5.18;;;4.68;;
33162;SDS011;29282;45.656;11.302;2024-03-22T04:45:44;6.65;;;4.75;;
33162;SDS011;29282;45.656;11.302;2024-03-22T04:48:12;5.30;;;4.80;;
33162;SDS011;29282;45.656;11.302;2024-03-22T04:50:38;5.70;;;4.68;;
33162;SDS011;29282;45.656;11.302;2024-03-22T04:53:04;4.63;;;4.18;;
33162;SDS011;29282;45.656;11.302;2024-03-22T04:55:30;5.18;;;4.68;;
33162;SDS011;29282;45.656;11.302;2024-03-22T04:57:57;5.10;;;4.60;;
33162;SDS011;29282;45.656;11.302;2024-03-22T05:00:23;6.05;;;4.75;;
33162;SDS011;29282;45.656;11.302;2024-03-22T05:02:50;5.43;;;4.80;;
33162;SDS011;29282;45.656;11.302;2024-03-22T05:05:16;5.32;;;4.70;;
33162;SDS011;29282;45.656;11.302;2024-03-22T05:07:42;5.75;;;4.55;;
33162;SDS011;29282;45.656;11.302;2024-03-22T05:10:07;5.95;;;4.70;;
33162;SDS011;29282;45.656;11.302;2024-03-22T05:12:37;6.28;;;4.70;;
33162;SDS011;29282;45.656;11.302;2024-03-22T05:15:03;5.00;;;4.50;;
33162;SDS011;29282;45.656;11.302;2024-03-22T05:17:29;6.53;;;4.97;;
33162;SDS011;29282;45.656;11.302;2024-03-22T05:19:57;5.22;;;3.90;;
33162;SDS011;29282;45.656;11.302;2024-03-22T05:22:25;6.47;;;4.93;;
33162;SDS011;29282;45.656;11.302;2024-03-22T05:24:51;5.43;;;4.10;;
33162;SDS011;29282;45.656;11.302;2024-03-22T05:27:17;4.85;;;4.35;;
33162;SDS011;29282;45.656;11.302;2024-03-22T05:29:43;4.90;;;4.40;;
33162;SDS011;29282;45.656;11.302;2024-03-22T05:32:08;5.75;;;4.60;;
33162;SDS011;29282;45.656;11.302;2024-03-22T05:34:34;4.55;;;4.10;;
33162;SDS011;29282;45.656;11.302;2024-03-22T05:37:00;6.80;;;4.85;;
33162;SDS011;29282;45.656;11.302;2024-03-22T05:39:26;5.07;;;4.40;;
33162;SDS011;29282;45.656;11.302;2024-03-22T05:41:51;5.40;;;4.32;;
33162;SDS011;29282;45.656;11.302;2024-03-22T05:44:17;5.68;;;4.22;;
33162;SDS011;29282;45.656;11.302;2024-03-22T05:46:43;4.68;;;4.28;;
33162;SDS011;29282;45.656;11.302;2024-03-22T05:49:12;5.13;;;4.28;;
33162;SDS011;29282;45.656;11.302;2024-03-22T05:51:37;4.97;;;4.47;;
33162;SDS011;29282;45.656;11.302;2024-03-22T05:54:03;4.50;;;4.10;;
33162;SDS011;29282;45.656;11.302;2024-03-22T05:56:29;6.13;;;4.70;;
33162;SDS011;29282;45.656;11.302;2024-03-22T05:58:54;5.28;;;4.15;;
33162;SDS011;29282;45.656;11.302;2024-03-22T06:01:19;5.13;;;4.28;;
33162;SDS011;29282;45.656;11.302;2024-03-22T06:03:45;5.50;;;4.55;;
33162;SDS011;29282;45.656;11.302;2024-03-22T06:06:10;5.03;;;4.13;;
33162;SDS011;29282;45.656;11.302;2024-03-22T06:08:37;4.15;;;3.80;;
33162;SDS011;29282;45.656;11.302;2024-03-22T06:11:05;5.40;;;3.97;;
33162;SDS011;29282;45.656;11.302;2024-03-22T06:13:32;4.63;;;4.00;;
33162;SDS011;29282;45.656;11.302;2024-03-22T06:15:58;4.13;;;3.70;;
33162;SDS011;29282;45.656;11.302;2024-03-22T06:18:23;4.70;;;4.03;;
33162;SDS011;29282;45.656;11.302;2024-03-22T06:20:49;4.47;;;4.07;;
33162;SDS011;29282;45.656;11.302;2024-03-22T06:23:14;4.93;;;3.90;;
33162;SDS011;29282;45.656;11.302;2024-03-22T06:25:40;4.40;;;4.00;;
33162;SDS011;29282;45.656;11.302;2024-03-22T06:28:05;4.43;;;3.97;;
33162;SDS011;29282;45.656;11.302;2024-03-22T06:30:31;5.28;;;4.20;;
33162;SDS011;29282;45.656;11.302;2024-03-22T06:32:56;4.32;;;3.78;;
33162;SDS011;29282;45.656;11.302;2024-03-22T06:35:22;4.97;;;3.85;;
33162;SDS011;29282;45.656;11.302;2024-03-22T06:37:47;4.43;;;3.88;;
33162;SDS011;29282;45.656;11.302;2024-03-22T06:40:14;3.90;;;3.58;;
33162;SDS011;29282;45.656;11.302;2024-03-22T06:42:39;4.90;;;4.10;;
33162;SDS011;29282;45.656;11.302;2024-03-22T06:45:05;4.60;;;3.78;;
33162;SDS011;29282;45.656;11.302;2024-03-22T06:47:31;4.50;;;3.75;;
33162;SDS011;29282;45.656;11.302;2024-03-22T06:49:57;5.63;;;3.67;;
33162;SDS011;29282;45.656;11.302;2024-03-22T06:52:23;5.32;;;4.03;;
33162;SDS011;29282;45.656;11.302;2024-03-22T06:54:48;4.40;;;3.58;;
33162;SDS011;29282;45.656;11.302;2024-03-22T06:57:14;4.03;;;3.63;;
33162;SDS011;29282;45.656;11.302;2024-03-22T06:59:39;7.65;;;3.40;;
33162;SDS011;29282;45.656;11.302;2024-03-22T07:02:05;5.15;;;3.83;;
33162;SDS011;29282;45.656;11.302;2024-03-22T07:04:30;4.90;;;3.30;;
33162;SDS011;29282;45.656;11.302;2024-03-22T07:06:59;11.05;;;3.55;;
33162;SDS011;29282;45.656;11.302;2024-03-22T07:09:24;5.00;;;3.65;;
33162;SDS011;29282;45.656;11.302;2024-03-22T07:11:51;5.60;;;3.38;;
33162;SDS011;29282;45.656;11.302;2024-03-22T07:14:17;5.45;;;3.22;;
33162;SDS011;29282;45.656;11.302;2024-03-22T07:16:42;6.55;;;3.50;;
33162;SDS011;29282;45.656;11.302;2024-03-22T07:19:08;5.60;;;3.20;;
33162;SDS011;29282;45.656;11.302;2024-03-22T07:21:36;4.35;;;3.40;;
33162;SDS011;29282;45.656;11.302;2024-03-22T07:24:02;4.30;;;3.22;;
33162;SDS011;29282;45.656;11.302;2024-03-22T07:26:28;6.65;;;3.10;;
33162;SDS011;29282;45.656;11.302;2024-03-22T07:28:53;14.30;;;3.95;;
33162;SDS011;29282;45.656;11.302;2024-03-22T07:31:19;8.45;;;3.30;;
33162;SDS011;29282;45.656;11.302;2024-03-22T07:33:44;5.25;;;3.05;;
33162;SDS011;29282;45.656;11.302;2024-03-22T07:36:10;11.25;;;3.10;;
33162;SDS011;29282;45.656;11.302;2024-03-22T07:38:35;10.43;;;3.42;;
33162;SDS011;29282;45.656;11.302;2024-03-22T07:41:03;10.25;;;3.03;;
33162;SDS011;29282;45.656;11.302;2024-03-22T07:43:29;14.30;;;3.58;;
33162;SDS011;29282;45.656;11.302;2024-03-22T07:45:55;12.18;;;4.10;;
33162;SDS011;29282;45.656;11.302;2024-03-22T07:48:20;7.75;;;3.40;;
33162;SDS011;29282;45.656;11.302;2024-03-22T07:50:46;13.23;;;3.55;;
33162;SDS011;29282;45.656;11.302;2024-03-22T07:53:11;8.68;;;3.42;;
33162;SDS011;29282;45.656;11.302;2024-03-22T07:55:38;6.70;;;3.25;;
33162;SDS011;29282;45.656;11.302;2024-03-22T07:58:04;10.63;;;3.17;;
33162;SDS011;29282;45.656;11.302;2024-03-22T08:00:31;5.50;;;2.80;;
33162;SDS011;29282;45.656;11.302;2024-03-22T08:02:56;7.68;;;2.83;;
33162;SDS011;29282;45.656;11.302;2024-03-22T08:05:22;9.32;;;3.65;;
33162;SDS011;29282;45.656;11.302;2024-03-22T08:07:47;4.03;;;3.10;;
33162;SDS011;29282;45.656;11.302;2024-03-22T08:10:13;5.38;;;3.00;;
33162;SDS011;29282;45.656;11.302;2024-03-22T08:12:40;3.53;;;2.63;;
33162;SDS011;29282;45.656;11.302;2024-03-22T08:15:06;6.15;;;3.05;;
33162;SDS011;29282;45.656;11.302;2024-03-22T08:17:32;7.15;;;3.25;;
33162;SDS011;29282;45.656;11.302;2024-03-22T08:19:58;8.00;;;3.20;;
33162;SDS011;29282;45.656;11.302;2024-03-22T08:22:23;4.65;;;3.25;;
33162;SDS011;29282;45.656;11.302;2024-03-22T08:24:48;5.25;;;2.97;;
33162;SDS011;29282;45.656;11.302;2024-03-22T08:27:14;6.43;;;3.33;;
33162;SDS011;29282;45.656;11.302;2024-03-22T08:29:40;6.57;;;2.95;;
33162;SDS011;29282;45.656;11.302;2024-03-22T08:32:06;3.50;;;2.90;;
33162;SDS011;29282;45.656;11.302;2024-03-22T08:34:32;6.15;;;3.08;;
33162;SDS011;29282;45.656;11.302;2024-03-22T08:36:57;4.07;;;2.65;;
33162;SDS011;29282;45.656;11.302;2024-03-22T08:39:23;3.03;;;2.50;;
33162;SDS011;29282;45.656;11.302;2024-03-22T08:41:49;3.72;;;3.05;;
33162;SDS011;29282;45.656;11.302;2024-03-22T08:44:16;4.85;;;2.85;;
33162;SDS011;29282;45.656;11.302;2024-03-22T08:46:41;6.85;;;2.70;;
33162;SDS011;29282;45.656;11.302;2024-03-22T08:49:07;6.15;;;2.65;;
33162;SDS011;29282;45.656;11.302;2024-03-22T08:51:32;4.15;;;2.95;;
33162;SDS011;29282;45.656;11.302;2024-03-22T08:53:58;5.05;;;2.72;;
33162;SDS011;29282;45.656;11.302;2024-03-22T08:56:24;4.22;;;2.75;;
33162;SDS011;29282;45.656;11.302;2024-03-22T08:58:49;5.60;;;2.72;;
33162;SDS011;29282;45.656;11.302;2024-03-22T09:01:15;5.30;;;2.83;;
33162;SDS011;29282;45.656;11.302;2024-03-22T09:03:41;7.05;;;2.90;;
33162;SDS011;29282;45.656;11.302;2024-03-22T09:06:08;3.38;;;2.65;;
33162;SDS011;29282;45.656;11.302;2024-03-22T09:08:33;5.07;;;2.92;;
33162;SDS011;29282;45.656;11.302;2024-03-22T09:10:59;6.50;;;2.80;;
33162;SDS011;29282;45.656;11.302;2024-03-22T09:13:24;4.18;;;2.75;;
33162;SDS011;29282;45.656;11.302;2024-03-22T09:15:55;4.63;;;2.97;;
33162;SDS011;29282;45.656;11.302;2024-03-22T09:18:22;4.60;;;2.70;;
33162;SDS011;29282;45.656;11.302;2024-03-22T09:20:48;3.95;;;2.65;;
33162;SDS011;29282;45.656;11.302;2024-03-22T09:23:13;3.63;;;2.30;;
33162;SDS011;29282;45.656;11.302;2024-03-22T09:25:39;5.15;;;2.83;;
33162;SDS011;29282;45.656;11.302;2024-03-22T09:28:04;4.22;;;2.78;;
33162;SDS011;29282;45.656;11.302;2024-03-22T09:30:30;3.75;;;2.90;;
33162;SDS011;29282;45.656;11.302;2024-03-22T09:32:56;3.63;;;2.88;;
33162;SDS011;29282;45.656;11.302;2024-03-22T09:35:21;4.22;;;2.55;;
33162;SDS011;29282;45.656;11.302;2024-03-22T09:37:47;3.35;;;2.60;;
33162;SDS011;29282;45.656;11.302;2024-03-22T09:40:12;4.35;;;2.60;;
33162;SDS011;29282;45.656;11.302;2024-03-22T09:42:38;3.90;;;2.53;;
33162;SDS011;29282;45.656;11.302;2024-03-22T09:45:07;4.63;;;2.53;;
33162;SDS011;29282;45.656;11.302;2024-03-22T09:47:35;4.50;;;2.72;;
33162;SDS011;29282;45.656;11.302;2024-03-22T09:50:02;4.53;;;2.50;;
33162;SDS011;29282;45.656;11.302;2024-03-22T09:52:31;3.35;;;2.60;;
33162;SDS011;29282;45.656;11.302;2024-03-22T09:54:58;3.50;;;2.75;;
33162;SDS011;29282;45.656;11.302;2024-03-22T09:57:24;3.55;;;2.60;;
33162;SDS011;29282;45.656;11.302;2024-03-22T09:59:51;4.80;;;2.55;;
33162;SDS011;29282;45.656;11.302;2024-03-22T10:02:16;5.13;;;2.50;;
33162;SDS011;29282;45.656;11.302;2024-03-22T10:04:43;3.38;;;2.67;;
33162;SDS011;29282;45.656;11.302;2024-03-22T10:07:08;3.60;;;2.67;;
33162;SDS011;29282;45.656;11.302;2024-03-22T10:09:35;2.97;;;2.53;;
33162;SDS011;29282;45.656;11.302;2024-03-22T10:12:00;3.08;;;2.38;;
33162;SDS011;29282;45.656;11.302;2024-03-22T10:14:29;4.30;;;2.70;;
33162;SDS011;29282;45.656;11.302;2024-03-22T10:16:58;3.03;;;2.33;;
33162;SDS011;29282;45.656;11.302;2024-03-22T10:19:24;5.35;;;2.85;;
33162;SDS011;29282;45.656;11.302;2024-03-22T10:21:59;4.15;;;2.40;;
33162;SDS011;29282;45.656;11.302;2024-03-22T10:24:25;4.18;;;2.58;;
33162;SDS011;29282;45.656;11.302;2024-03-22T10:26:51;2.80;;;2.47;;
33162;SDS011;29282;45.656;11.302;2024-03-22T10:29:20;5.05;;;2.80;;
33162;SDS011;29282;45.656;11.302;2024-03-22T10:31:50;4.07;;;3.20;;
33162;SDS011;29282;45.656;11.302;2024-03-22T10:34:17;4.82;;;2.60;;
33162;SDS011;29282;45.656;11.302;2024-03-22T10:36:43;5.47;;;2.78;;
33162;SDS011;29282;45.656;11.302;2024-03-22T10:39:11;6.65;;;2.70;;
33162;SDS011;29282;45.656;11.302;2024-03-22T10:41:42;3.47;;;2.47;;
33162;SDS011;29282;45.656;11.302;2024-03-22T10:44:08;3.88;;;2.47;;
33162;SDS011;29282;45.656;11.302;2024-03-22T10:46:34;3.30;;;2.42;;
33162;SDS011;29282;45.656;11.302;2024-03-22T10:49:00;2.55;;;2.30;;
33162;SDS011;29282;45.656;11.302;2024-03-22T10:51:30;3.40;;;2.28;;
33162;SDS011;29282;45.656;11.302;2024-03-22T10:54:01;3.47;;;2.40;;
33162;SDS011;29282;45.656;11.302;2024-03-22T10:56:28;3.38;;;2.40;;
33162;SDS011;29282;45.656;11.302;2024-03-22T10:59:02;3.47;;;2.63;;
33162;SDS011;29282;45.656;11.302;2024-03-22T11:01:29;2.53;;;2.33;;
33162;SDS011;29282;45.656;11.302;2024-03-22T11:04:04;2.50;;;2.30;;
33162;SDS011;29282;45.656;11.302;2024-03-22T11:06:36;2.70;;;2.20;;
33162;SDS011;29282;45.656;11.302;2024-03-22T11:09:02;3.40;;;2.75;;
33162;SDS011;29282;45.656;11.302;2024-03-22T11:11:31;4.28;;;2.63;;
33162;SDS011;29282;45.656;11.302;2024-03-22T11:14:02;4.63;;;2.60;;
33162;SDS011;29282;45.656;11.302;2024-03-22T11:16:28;4.93;;;2.55;;
33162;SDS011;29282;45.656;11.302;2024-03-22T11:18:54;5.65;;;2.58;;
33162;SDS011;29282;45.656;11.302;2024-03-22T11:21:20;5.35;;;2.35;;
33162;SDS011;29282;45.656;11.302;2024-03-22T11:23:46;4.00;;;2.38;;
33162;SDS011;29282;45.656;11.302;2024-03-22T11:26:12;4.28;;;2.50;;
33162;SDS011;29282;45.656;11.302;2024-03-22T11:28:38;3.72;;;2.55;;
33162;SDS011;29282;45.656;11.302;2024-03-22T11:31:04;4.70;;;2.75;;
33162;SDS011;29282;45.656;11.302;2024-03-22T11:33:30;4.75;;;2.40;;
33162;SDS011;29282;45.656;11.302;2024-03-22T11:35:58;2.78;;;2.40;;
33162;SDS011;29282;45.656;11.302;2024-03-22T11:38:25;6.05;;;2.60;;
33162;SDS011;29282;45.656;11.302;2024-03-22T11:40:52;3.83;;;2.53;;
33162;SDS011;29282;45.656;11.302;2024-03-22T11:43:19;5.70;;;2.33;;
33162;SDS011;29282;45.656;11.302;2024-03-22T11:45:45;4.65;;;2.17;;
33162;SDS011;29282;45.656;11.302;2024-03-22T11:48:11;6.03;;;2.63;;
33162;SDS011;29282;45.656;11.302;2024-03-22T11:50:37;7.00;;;2.60;;
33162;SDS011;29282;45.656;11.302;2024-03-22T11:53:04;6.30;;;2.38;;
33162;SDS011;29282;45.656;11.302;2024-03-22T11:55:30;5.88;;;2.30;;
33162;SDS011;29282;45.656;11.302;2024-03-22T11:57:59;4.15;;;2.30;;
33162;SDS011;29282;45.656;11.302;2024-03-22T12:00:25;5.82;;;2.58;;
33162;SDS011;29282;45.656;11.302;2024-03-22T12:02:52;4.43;;;2.65;;
33162;SDS011;29282;45.656;11.302;2024-03-22T12:05:18;4.07;;;2.50;;
33162;SDS011;29282;45.656;11.302;2024-03-22T12:07:45;7.88;;;2.70;;
33162;SDS011;29282;45.656;11.302;2024-03-22T12:10:11;3.85;;;2.50;;
33162;SDS011;29282;45.656;11.302;2024-03-22T12:12:36;3.90;;;2.50;;
33162;SDS011;29282;45.656;11.302;2024-03-22T12:15:02;5.97;;;2.50;;
33162;SDS011;29282;45.656;11.302;2024-03-22T12:17:28;6.22;;;3.13;;
33162;SDS011;29282;45.656;11.302;2024-03-22T12:19:55;3.60;;;2.50;;
33162;SDS011;29282;45.656;11.302;2024-03-22T12:22:21;6.75;;;2.45;;
33162;SDS011;29282;45.656;11.302;2024-03-22T12:24:47;7.50;;;2.40;;
33162;SDS011;29282;45.656;11.302;2024-03-22T12:27:13;5.68;;;2.70;;
33162;SDS011;29282;45.656;11.302;2024-03-22T12:29:44;6.40;;;2.80;;
33162;SDS011;29282;45.656;11.302;2024-03-22T12:32:12;3.65;;;2.20;;
33162;SDS011;29282;45.656;11.302;2024-03-22T12:34:38;5.82;;;2.45;;
33162;SDS011;29282;45.656;11.302;2024-03-22T12:37:03;5.72;;;2.33;;
33162;SDS011;29282;45.656;11.302;2024-03-22T12:39:29;3.75;;;2.60;;
33162;SDS011;29282;45.656;11.302;2024-03-22T12:41:54;4.03;;;2.35;;
33162;SDS011;29282;45.656;11.302;2024-03-22T12:44:20;6.40;;;2.72;;
33162;SDS011;29282;45.656;11.302;2024-03-22T12:46:46;4.03;;;2.30;;
33162;SDS011;29282;45.656;11.302;2024-03-22T12:49:12;3.45;;;2.20;;
33162;SDS011;29282;45.656;11.302;2024-03-22T12:51:38;4.82;;;2.75;;
33162;SDS011;29282;45.656;11.302;2024-03-22T12:54:03;4.50;;;2.40;;
33162;SDS011;29282;45.656;11.302;2024-03-22T12:56:32;5.03;;;2.50;;
33162;SDS011;29282;45.656;11.302;2024-03-22T12:58:58;4.25;;;2.88;;
33162;SDS011;29282;45.656;11.302;2024-03-22T13:01:24;3.70;;;2.50;;
33162;SDS011;29282;45.656;11.302;2024-03-22T13:03:50;4.72;;;2.50;;
33162;SDS011;29282;45.656;11.302;2024-03-22T13:06:15;3.53;;;2.55;;
33162;SDS011;29282;45.656;11.302;2024-03-22T13:08:40;4.30;;;2.58;;
33162;SDS011;29282;45.656;11.302;2024-03-22T13:11:06;3.95;;;2.72;;
33162;SDS011;29282;45.656;11.302;2024-03-22T13:13:38;8.73;;;2.70;;
33162;SDS011;29282;45.656;11.302;2024-03-22T13:16:04;2.47;;;2.20;;
33162;SDS011;29282;45.656;11.302;2024-03-22T13:18:31;5.18;;;2.50;;
33162;SDS011;29282;45.656;11.302;2024-03-22T13:20:57;4.90;;;2.45;;
33162;SDS011;29282;45.656;11.302;2024-03-22T13:23:23;4.85;;;2.38;;
33162;SDS011;29282;45.656;11.302;2024-03-22T13:25:49;4.65;;;2.15;;
33162;SDS011;29282;45.656;11.302;2024-03-22T13:28:15;5.60;;;2.75;;
33162;SDS011;29282;45.656;11.302;2024-03-22T13:30:45;4.80;;;2.78;;
33162;SDS011;29282;45.656;11.302;2024-03-22T13:33:14;4.47;;;2.53;;
33162;SDS011;29282;45.656;11.302;2024-03-22T13:35:41;3.47;;;2.33;;
33162;SDS011;29282;45.656;11.302;2024-03-22T13:38:11;8.07;;;2.72;;
33162;SDS011;29282;45.656;11.302;2024-03-22T13:40:41;3.20;;;2.40;;
33162;SDS011;29282;45.656;11.302;2024-03-22T13:43:09;3.05;;;2.30;;
33162;SDS011;29282;45.656;11.302;2024-03-22T13:45:42;3.20;;;2.30;;
33162;SDS011;29282;45.656;11.302;2024-03-22T13:48:10;3.47;;;2.45;;
33162;SDS011;29282;45.656;11.302;2024-03-22T13:50:40;4.93;;;2.50;;
33162;SDS011;29282;45.656;11.302;2024-03-22T13:53:06;4.10;;;2.53;;
33162;SDS011;29282;45.656;11.302;2024-03-22T13:55:33;4.47;;;2.22;;
33162;SDS011;29282;45.656;11.302;2024-03-22T13:57:59;6.93;;;2.80;;
33162;SDS011;29282;45.656;11.302;2024-03-22T14:03:45;6.85;;;2.72;;
33162;SDS011;29282;45.656;11.302;2024-03-22T14:06:11;4.93;;;2.13;;
33162;SDS011;29282;45.656;11.302;2024-03-22T14:08:37;3.33;;;2.30;;
33162;SDS011;29282;45.656;11.302;2024-03-22T14:11:03;4.20;;;2.33;;
33162;SDS011;29282;45.656;11.302;2024-03-22T14:13:29;6.30;;;2.55;;
33162;SDS011;29282;45.656;11.302;2024-03-22T14:15:54;7.60;;;2.45;;
33162;SDS011;29282;45.656;11.302;2024-03-22T14:18:20;7.18;;;2.47;;
33162;SDS011;29282;45.656;11.302;2024-03-22T14:20:45;5.45;;;2.30;;
33162;SDS011;29282;45.656;11.302;2024-03-22T14:23:11;6.35;;;2.42;;
33162;SDS011;29282;45.656;11.302;2024-03-22T14:25:39;3.17;;;2.53;;
33162;SDS011;29282;45.656;11.302;2024-03-22T14:28:05;6.55;;;2.40;;
33162;SDS011;29282;45.656;11.302;2024-03-22T14:30:30;4.43;;;2.65;;
33162;SDS011;29282;45.656;11.302;2024-03-22T14:32:56;8.13;;;2.50;;
33162;SDS011;29282;45.656;11.302;2024-03-22T14:35:21;5.53;;;2.63;;